Kezdőlap
METAR-TAF:

METAR-TAF

Repülőterek :

Estherville Municipal Airport

Estherville, Iowa, Amerikai Egyesült Államok

földrajzi szélesség: 43-24-04N, földrajzi hosszúság: 094-44-50W, magasság: 401 m

Jelenlegi meteorológiai megfigyelések

A jelentés 14 perccel ezelõtt készült, 18:52 UTC
Észak-északnyugati szél 3 kt
Hőmérséklet 31°C
Páratartalom 27%
Légköri nyomás 1012 hPa
Látótávolság: 16.1 km
Derült ég

METAR: KEST 181852Z AUTO 34003KT 10SM CLR 31/10 A2987 RMK AO2 SLP105 T03060100

Idő: 14:06 (19:06 UTC)


TAF: hiányzik

Meteorológiai megfigyelések és előrejelzések több, mint 4000 repülőtéren (METAR és TAF jelentéseket).

A térképen piros és sárga pontok jelzik az elérhető meteorológiai állomásokat.

Mozgassa az egeret a pont fölött, hogy megjelenjen az állomás neve.

Azután kattintson az időjárási megfigyelések és előrejelzések megtekintéséhez.

A térkép megváltoztatása: kattintson a fekete keresztel jelölt zöld gombra ráközelítéshez, a vonallal jelölt zöld gombra távolításhoz, vagy a zöld nyilakra a szomszédos térképek eléréséhez.


METAR-TAF: